sensor_id;sensor_type;location;lat;lon;timestamp;P1;durP1;ratioP1;P2;durP2;ratioP2
8526;SDS011;4301;48.362;8.478;2022-11-15T00:00:01;4.47;;;4.03;;
8526;SDS011;4301;48.362;8.478;2022-11-15T00:02:30;6.47;;;4.00;;
8526;SDS011;4301;48.362;8.478;2022-11-15T00:04:57;4.47;;;4.07;;
8526;SDS011;4301;48.362;8.478;2022-11-15T00:07:26;4.40;;;4.00;;
8526;SDS011;4301;48.362;8.478;2022-11-15T00:09:53;4.90;;;4.40;;
8526;SDS011;4301;48.362;8.478;2022-11-15T00:12:20;6.07;;;4.43;;
8526;SDS011;4301;48.362;8.478;2022-11-15T00:14:47;5.23;;;4.50;;
8526;SDS011;4301;48.362;8.478;2022-11-15T00:17:14;5.20;;;4.27;;
8526;SDS011;4301;48.362;8.478;2022-11-15T00:19:43;4.83;;;4.07;;
8526;SDS011;4301;48.362;8.478;2022-11-15T00:22:10;5.17;;;4.37;;
8526;SDS011;4301;48.362;8.478;2022-11-15T00:24:37;4.53;;;4.10;;
8526;SDS011;4301;48.362;8.478;2022-11-15T00:27:04;5.77;;;4.03;;
8526;SDS011;4301;48.362;8.478;2022-11-15T00:29:31;4.77;;;4.20;;
8526;SDS011;4301;48.362;8.478;2022-11-15T00:31:59;4.33;;;4.00;;
8526;SDS011;4301;48.362;8.478;2022-11-15T00:34:26;4.73;;;4.23;;
8526;SDS011;4301;48.362;8.478;2022-11-15T00:36:54;4.90;;;4.10;;
8526;SDS011;4301;48.362;8.478;2022-11-15T00:39:21;5.13;;;4.27;;
8526;SDS011;4301;48.362;8.478;2022-11-15T00:41:48;5.37;;;4.57;;
8526;SDS011;4301;48.362;8.478;2022-11-15T00:44:16;5.80;;;4.53;;
8526;SDS011;4301;48.362;8.478;2022-11-15T00:46:43;4.80;;;4.40;;
8526;SDS011;4301;48.362;8.478;2022-11-15T00:49:10;5.60;;;5.10;;
8526;SDS011;4301;48.362;8.478;2022-11-15T00:51:37;5.10;;;4.37;;
8526;SDS011;4301;48.362;8.478;2022-11-15T00:54:05;5.80;;;5.20;;
8526;SDS011;4301;48.362;8.478;2022-11-15T00:56:33;4.83;;;4.30;;
8526;SDS011;4301;48.362;8.478;2022-11-15T00:59:00;5.13;;;4.50;;
8526;SDS011;4301;48.362;8.478;2022-11-15T01:01:27;6.33;;;4.77;;
8526;SDS011;4301;48.362;8.478;2022-11-15T01:03:54;4.67;;;3.90;;
8526;SDS011;4301;48.362;8.478;2022-11-15T01:06:21;7.97;;;6.43;;
8526;SDS011;4301;48.362;8.478;2022-11-15T01:08:48;6.40;;;5.17;;
8526;SDS011;4301;48.362;8.478;2022-11-15T01:11:17;6.07;;;4.57;;
8526;SDS011;4301;48.362;8.478;2022-11-15T01:13:44;6.10;;;3.90;;
8526;SDS011;4301;48.362;8.478;2022-11-15T01:16:12;4.80;;;3.80;;
8526;SDS011;4301;48.362;8.478;2022-11-15T01:18:41;4.70;;;4.13;;
8526;SDS011;4301;48.362;8.478;2022-11-15T01:21:09;7.17;;;5.10;;
8526;SDS011;4301;48.362;8.478;2022-11-15T01:23:38;4.80;;;4.17;;
8526;SDS011;4301;48.362;8.478;2022-11-15T01:26:06;4.23;;;3.83;;
8526;SDS011;4301;48.362;8.478;2022-11-15T01:28:37;6.33;;;5.70;;
8526;SDS011;4301;48.362;8.478;2022-11-15T01:31:08;6.67;;;4.77;;
8526;SDS011;4301;48.362;8.478;2022-11-15T01:33:38;5.77;;;3.90;;
8526;SDS011;4301;48.362;8.478;2022-11-15T01:36:06;5.27;;;3.50;;
8526;SDS011;4301;48.362;8.478;2022-11-15T01:38:34;5.37;;;4.10;;
8526;SDS011;4301;48.362;8.478;2022-11-15T01:41:02;4.10;;;3.80;;
8526;SDS011;4301;48.362;8.478;2022-11-15T01:43:31;4.20;;;3.80;;
8526;SDS011;4301;48.362;8.478;2022-11-15T01:46:00;4.23;;;3.83;;
8526;SDS011;4301;48.362;8.478;2022-11-15T01:48:32;3.83;;;3.57;;
8526;SDS011;4301;48.362;8.478;2022-11-15T01:51:01;5.70;;;3.90;;
8526;SDS011;4301;48.362;8.478;2022-11-15T01:53:32;4.23;;;3.50;;
8526;SDS011;4301;48.362;8.478;2022-11-15T01:56:03;4.03;;;3.60;;
8526;SDS011;4301;48.362;8.478;2022-11-15T01:58:34;5.77;;;3.73;;
8526;SDS011;4301;48.362;8.478;2022-11-15T02:01:06;3.10;;;2.90;;
8526;SDS011;4301;48.362;8.478;2022-11-15T02:03:35;5.70;;;3.43;;
8526;SDS011;4301;48.362;8.478;2022-11-15T02:06:08;3.20;;;2.90;;
8526;SDS011;4301;48.362;8.478;2022-11-15T02:08:35;4.50;;;3.43;;
8526;SDS011;4301;48.362;8.478;2022-11-15T02:11:04;3.77;;;3.47;;
8526;SDS011;4301;48.362;8.478;2022-11-15T02:13:33;3.67;;;3.37;;
8526;SDS011;4301;48.362;8.478;2022-11-15T02:16:03;5.03;;;3.53;;
8526;SDS011;4301;48.362;8.478;2022-11-15T02:18:45;4.43;;;4.03;;
8526;SDS011;4301;48.362;8.478;2022-11-15T02:21:18;4.67;;;3.73;;
8526;SDS011;4301;48.362;8.478;2022-11-15T02:23:57;6.57;;;4.20;;
8526;SDS011;4301;48.362;8.478;2022-11-15T02:29:42;7.27;;;5.23;;
8526;SDS011;4301;48.362;8.478;2022-11-15T02:32:29;7.37;;;5.47;;
8526;SDS011;4301;48.362;8.478;2022-11-15T02:35:06;7.20;;;4.80;;
8526;SDS011;4301;48.362;8.478;2022-11-15T02:37:44;6.97;;;4.23;;
8526;SDS011;4301;48.362;8.478;2022-11-15T02:40:17;4.40;;;4.00;;
8526;SDS011;4301;48.362;8.478;2022-11-15T02:42:53;4.17;;;3.37;;
8526;SDS011;4301;48.362;8.478;2022-11-15T02:45:41;7.83;;;4.87;;
8526;SDS011;4301;48.362;8.478;2022-11-15T02:48:14;6.30;;;4.07;;
8526;SDS011;4301;48.362;8.478;2022-11-15T02:50:43;5.07;;;4.10;;
8526;SDS011;4301;48.362;8.478;2022-11-15T02:53:11;4.03;;;3.63;;
8526;SDS011;4301;48.362;8.478;2022-11-15T02:55:41;3.93;;;3.33;;
8526;SDS011;4301;48.362;8.478;2022-11-15T02:58:18;4.43;;;4.03;;
8526;SDS011;4301;48.362;8.478;2022-11-15T03:01:11;4.00;;;3.60;;
8526;SDS011;4301;48.362;8.478;2022-11-15T03:03:52;4.00;;;3.70;;
8526;SDS011;4301;48.362;8.478;2022-11-15T03:06:28;3.43;;;3.13;;
8526;SDS011;4301;48.362;8.478;2022-11-15T03:09:03;6.57;;;3.67;;
8526;SDS011;4301;48.362;8.478;2022-11-15T03:11:32;3.73;;;3.13;;
8526;SDS011;4301;48.362;8.478;2022-11-15T03:14:06;7.67;;;3.30;;
8526;SDS011;4301;48.362;8.478;2022-11-15T03:16:41;3.50;;;3.17;;
8526;SDS011;4301;48.362;8.478;2022-11-15T03:19:17;4.97;;;3.67;;
8526;SDS011;4301;48.362;8.478;2022-11-15T03:21:53;5.20;;;3.30;;
8526;SDS011;4301;48.362;8.478;2022-11-15T03:24:22;4.37;;;3.47;;
8526;SDS011;4301;48.362;8.478;2022-11-15T03:26:51;4.60;;;3.77;;
8526;SDS011;4301;48.362;8.478;2022-11-15T03:29:21;4.80;;;3.27;;
8526;SDS011;4301;48.362;8.478;2022-11-15T03:31:51;5.03;;;3.70;;
8526;SDS011;4301;48.362;8.478;2022-11-15T03:34:26;4.37;;;3.70;;
8526;SDS011;4301;48.362;8.478;2022-11-15T03:36:56;4.00;;;3.50;;
8526;SDS011;4301;48.362;8.478;2022-11-15T03:39:23;5.40;;;3.40;;
8526;SDS011;4301;48.362;8.478;2022-11-15T03:41:56;4.83;;;4.37;;
8526;SDS011;4301;48.362;8.478;2022-11-15T03:44:34;6.90;;;5.20;;
8526;SDS011;4301;48.362;8.478;2022-11-15T03:47:07;5.97;;;4.70;;
8526;SDS011;4301;48.362;8.478;2022-11-15T03:49:40;5.43;;;4.40;;
8526;SDS011;4301;48.362;8.478;2022-11-15T03:52:11;5.27;;;4.50;;
8526;SDS011;4301;48.362;8.478;2022-11-15T03:54:47;9.10;;;5.70;;
8526;SDS011;4301;48.362;8.478;2022-11-15T03:57:16;7.20;;;4.87;;
8526;SDS011;4301;48.362;8.478;2022-11-15T03:59:43;4.90;;;4.00;;
8526;SDS011;4301;48.362;8.478;2022-11-15T04:02:10;3.93;;;3.53;;
8526;SDS011;4301;48.362;8.478;2022-11-15T04:04:39;6.67;;;5.50;;
8526;SDS011;4301;48.362;8.478;2022-11-15T04:07:07;6.40;;;5.30;;
8526;SDS011;4301;48.362;8.478;2022-11-15T04:09:34;5.70;;;4.77;;
8526;SDS011;4301;48.362;8.478;2022-11-15T04:12:22;5.03;;;4.53;;
8526;SDS011;4301;48.362;8.478;2022-11-15T04:14:56;7.03;;;4.77;;
8526;SDS011;4301;48.362;8.478;2022-11-15T04:17:33;5.27;;;4.50;;
8526;SDS011;4301;48.362;8.478;2022-11-15T04:20:06;5.30;;;4.80;;
8526;SDS011;4301;48.362;8.478;2022-11-15T04:23:06;4.47;;;4.07;;
8526;SDS011;4301;48.362;8.478;2022-11-15T04:25:54;5.57;;;4.03;;
8526;SDS011;4301;48.362;8.478;2022-11-15T04:28:22;4.63;;;4.20;;
8526;SDS011;4301;48.362;8.478;2022-11-15T04:30:50;5.73;;;4.13;;
8526;SDS011;4301;48.362;8.478;2022-11-15T04:33:17;5.00;;;4.50;;
8526;SDS011;4301;48.362;8.478;2022-11-15T04:35:46;4.73;;;3.70;;
8526;SDS011;4301;48.362;8.478;2022-11-15T04:38:33;9.67;;;4.13;;
8526;SDS011;4301;48.362;8.478;2022-11-15T04:41:00;4.73;;;4.20;;
8526;SDS011;4301;48.362;8.478;2022-11-15T04:43:27;7.00;;;4.53;;
8526;SDS011;4301;48.362;8.478;2022-11-15T04:45:56;7.70;;;4.40;;
8526;SDS011;4301;48.362;8.478;2022-11-15T04:48:23;6.87;;;4.67;;
8526;SDS011;4301;48.362;8.478;2022-11-15T04:50:52;5.10;;;4.57;;
8526;SDS011;4301;48.362;8.478;2022-11-15T04:53:19;5.03;;;4.50;;
8526;SDS011;4301;48.362;8.478;2022-11-15T04:55:46;6.13;;;4.67;;
8526;SDS011;4301;48.362;8.478;2022-11-15T04:58:13;5.30;;;4.80;;
8526;SDS011;4301;48.362;8.478;2022-11-15T05:00:40;6.97;;;4.50;;
8526;SDS011;4301;48.362;8.478;2022-11-15T05:03:08;6.03;;;4.37;;
8526;SDS011;4301;48.362;8.478;2022-11-15T05:05:55;5.47;;;4.10;;
8526;SDS011;4301;48.362;8.478;2022-11-15T05:08:23;6.67;;;4.57;;
8526;SDS011;4301;48.362;8.478;2022-11-15T05:10:50;4.30;;;3.90;;
8526;SDS011;4301;48.362;8.478;2022-11-15T05:13:17;5.17;;;4.67;;
8526;SDS011;4301;48.362;8.478;2022-11-15T05:15:44;4.50;;;4.10;;
8526;SDS011;4301;48.362;8.478;2022-11-15T05:18:11;6.87;;;4.27;;
8526;SDS011;4301;48.362;8.478;2022-11-15T05:20:39;5.70;;;4.30;;
8526;SDS011;4301;48.362;8.478;2022-11-15T05:23:07;5.60;;;4.83;;
8526;SDS011;4301;48.362;8.478;2022-11-15T05:25:35;6.00;;;4.70;;
8526;SDS011;4301;48.362;8.478;2022-11-15T05:28:03;4.90;;;4.40;;
8526;SDS011;4301;48.362;8.478;2022-11-15T05:30:30;6.13;;;4.30;;
8526;SDS011;4301;48.362;8.478;2022-11-15T05:32:57;8.30;;;4.63;;
8526;SDS011;4301;48.362;8.478;2022-11-15T05:35:27;6.83;;;5.10;;
8526;SDS011;4301;48.362;8.478;2022-11-15T05:37:57;9.70;;;5.23;;
8526;SDS011;4301;48.362;8.478;2022-11-15T05:40:26;6.47;;;5.20;;
8526;SDS011;4301;48.362;8.478;2022-11-15T05:42:53;6.73;;;6.07;;
8526;SDS011;4301;48.362;8.478;2022-11-15T05:45:21;7.40;;;6.63;;
8526;SDS011;4301;48.362;8.478;2022-11-15T05:47:49;8.87;;;6.40;;
8526;SDS011;4301;48.362;8.478;2022-11-15T05:50:16;8.33;;;6.53;;
8526;SDS011;4301;48.362;8.478;2022-11-15T05:52:44;7.43;;;6.07;;
8526;SDS011;4301;48.362;8.478;2022-11-15T05:55:12;8.10;;;6.03;;
8526;SDS011;4301;48.362;8.478;2022-11-15T05:57:42;7.53;;;6.33;;
8526;SDS011;4301;48.362;8.478;2022-11-15T06:00:10;7.63;;;5.87;;
8526;SDS011;4301;48.362;8.478;2022-11-15T06:02:38;6.43;;;5.20;;
8526;SDS011;4301;48.362;8.478;2022-11-15T06:05:05;5.80;;;5.23;;
8526;SDS011;4301;48.362;8.478;2022-11-15T06:07:32;6.10;;;5.27;;
8526;SDS011;4301;48.362;8.478;2022-11-15T06:10:00;8.17;;;5.43;;
8526;SDS011;4301;48.362;8.478;2022-11-15T06:12:27;6.43;;;4.77;;
8526;SDS011;4301;48.362;8.478;2022-11-15T06:14:55;5.37;;;4.50;;
8526;SDS011;4301;48.362;8.478;2022-11-15T06:17:23;6.10;;;4.30;;
8526;SDS011;4301;48.362;8.478;2022-11-15T06:19:50;5.70;;;5.17;;
8526;SDS011;4301;48.362;8.478;2022-11-15T06:22:17;6.80;;;6.10;;
8526;SDS011;4301;48.362;8.478;2022-11-15T06:24:45;7.10;;;6.33;;
8526;SDS011;4301;48.362;8.478;2022-11-15T06:27:13;7.83;;;6.90;;
8526;SDS011;4301;48.362;8.478;2022-11-15T06:29:40;7.50;;;6.80;;
8526;SDS011;4301;48.362;8.478;2022-11-15T06:32:08;8.30;;;7.25;;
8526;SDS011;4301;48.362;8.478;2022-11-15T06:34:36;8.93;;;7.37;;
8526;SDS011;4301;48.362;8.478;2022-11-15T06:37:04;7.93;;;6.60;;
8526;SDS011;4301;48.362;8.478;2022-11-15T06:39:31;6.33;;;5.73;;
8526;SDS011;4301;48.362;8.478;2022-11-15T06:41:58;7.40;;;5.67;;
8526;SDS011;4301;48.362;8.478;2022-11-15T06:44:25;6.37;;;5.50;;
8526;SDS011;4301;48.362;8.478;2022-11-15T06:46:52;5.97;;;5.37;;
8526;SDS011;4301;48.362;8.478;2022-11-15T06:49:21;6.73;;;6.07;;
8526;SDS011;4301;48.362;8.478;2022-11-15T06:51:48;6.63;;;5.60;;
8526;SDS011;4301;48.362;8.478;2022-11-15T06:54:15;9.43;;;6.60;;
8526;SDS011;4301;48.362;8.478;2022-11-15T06:56:43;9.20;;;5.67;;
8526;SDS011;4301;48.362;8.478;2022-11-15T06:59:10;6.47;;;5.40;;
8526;SDS011;4301;48.362;8.478;2022-11-15T07:01:37;6.77;;;5.00;;
8526;SDS011;4301;48.362;8.478;2022-11-15T07:04:04;8.37;;;6.00;;
8526;SDS011;4301;48.362;8.478;2022-11-15T07:06:32;6.40;;;5.80;;
8526;SDS011;4301;48.362;8.478;2022-11-15T07:09:01;6.07;;;5.33;;
8526;SDS011;4301;48.362;8.478;2022-11-15T07:11:29;6.30;;;5.70;;
8526;SDS011;4301;48.362;8.478;2022-11-15T07:13:56;5.43;;;4.93;;
8526;SDS011;4301;48.362;8.478;2022-11-15T07:16:24;6.47;;;4.93;;
8526;SDS011;4301;48.362;8.478;2022-11-15T07:18:51;6.40;;;5.60;;
8526;SDS011;4301;48.362;8.478;2022-11-15T07:21:18;7.63;;;5.50;;
8526;SDS011;4301;48.362;8.478;2022-11-15T07:23:47;6.27;;;5.60;;
8526;SDS011;4301;48.362;8.478;2022-11-15T07:26:14;6.97;;;5.50;;
8526;SDS011;4301;48.362;8.478;2022-11-15T07:28:42;7.53;;;5.13;;
8526;SDS011;4301;48.362;8.478;2022-11-15T07:31:09;8.47;;;6.27;;
8526;SDS011;4301;48.362;8.478;2022-11-15T07:33:36;6.53;;;5.37;;
8526;SDS011;4301;48.362;8.478;2022-11-15T07:36:04;6.07;;;5.07;;
8526;SDS011;4301;48.362;8.478;2022-11-15T07:38:33;6.20;;;5.60;;
8526;SDS011;4301;48.362;8.478;2022-11-15T07:41:03;5.70;;;5.10;;
8526;SDS011;4301;48.362;8.478;2022-11-15T07:43:31;5.73;;;5.17;;
8526;SDS011;4301;48.362;8.478;2022-11-15T07:45:59;5.70;;;5.20;;
8526;SDS011;4301;48.362;8.478;2022-11-15T07:48:34;9.33;;;5.03;;
8526;SDS011;4301;48.362;8.478;2022-11-15T07:51:02;5.73;;;5.23;;
8526;SDS011;4301;48.362;8.478;2022-11-15T07:53:29;5.97;;;5.47;;
8526;SDS011;4301;48.362;8.478;2022-11-15T07:55:56;8.00;;;7.03;;
8526;SDS011;4301;48.362;8.478;2022-11-15T07:58:25;8.47;;;7.57;;
8526;SDS011;4301;48.362;8.478;2022-11-15T08:00:52;10.07;;;8.40;;
8526;SDS011;4301;48.362;8.478;2022-11-15T08:03:19;10.07;;;8.33;;
8526;SDS011;4301;48.362;8.478;2022-11-15T08:05:49;9.27;;;7.27;;
8526;SDS011;4301;48.362;8.478;2022-11-15T08:08:17;8.10;;;6.70;;
8526;SDS011;4301;48.362;8.478;2022-11-15T08:10:44;10.93;;;6.73;;
8526;SDS011;4301;48.362;8.478;2022-11-15T08:13:12;6.10;;;5.50;;
8526;SDS011;4301;48.362;8.478;2022-11-15T08:15:41;5.90;;;5.30;;
8526;SDS011;4301;48.362;8.478;2022-11-15T08:18:09;7.37;;;5.07;;
8526;SDS011;4301;48.362;8.478;2022-11-15T08:20:39;6.13;;;4.93;;
8526;SDS011;4301;48.362;8.478;2022-11-15T08:23:07;5.90;;;5.30;;
8526;SDS011;4301;48.362;8.478;2022-11-15T08:25:36;5.40;;;4.90;;
8526;SDS011;4301;48.362;8.478;2022-11-15T08:28:05;6.30;;;5.50;;
8526;SDS011;4301;48.362;8.478;2022-11-15T08:30:34;7.17;;;6.33;;
8526;SDS011;4301;48.362;8.478;2022-11-15T08:33:05;8.67;;;6.97;;
8526;SDS011;4301;48.362;8.478;2022-11-15T08:35:36;10.17;;;6.70;;
8526;SDS011;4301;48.362;8.478;2022-11-15T08:38:03;9.10;;;7.70;;
8526;SDS011;4301;48.362;8.478;2022-11-15T08:40:30;6.73;;;5.80;;
8526;SDS011;4301;48.362;8.478;2022-11-15T08:42:58;6.40;;;5.60;;
8526;SDS011;4301;48.362;8.478;2022-11-15T08:45:27;7.93;;;5.70;;
8526;SDS011;4301;48.362;8.478;2022-11-15T08:47:55;12.93;;;11.57;;
8526;SDS011;4301;48.362;8.478;2022-11-15T08:50:23;7.53;;;5.70;;
8526;SDS011;4301;48.362;8.478;2022-11-15T08:52:50;12.90;;;9.90;;
8526;SDS011;4301;48.362;8.478;2022-11-15T08:55:18;6.87;;;6.10;;
8526;SDS011;4301;48.362;8.478;2022-11-15T08:57:45;12.03;;;10.80;;
8526;SDS011;4301;48.362;8.478;2022-11-15T09:00:12;7.90;;;6.13;;
8526;SDS011;4301;48.362;8.478;2022-11-15T09:02:40;5.53;;;4.83;;
8526;SDS011;4301;48.362;8.478;2022-11-15T09:05:08;6.00;;;5.43;;
8526;SDS011;4301;48.362;8.478;2022-11-15T09:07:36;10.97;;;6.77;;
8526;SDS011;4301;48.362;8.478;2022-11-15T09:10:04;9.57;;;6.17;;
8526;SDS011;4301;48.362;8.478;2022-11-15T09:12:31;6.47;;;5.87;;
8526;SDS011;4301;48.362;8.478;2022-11-15T09:14:59;6.17;;;5.53;;
8526;SDS011;4301;48.362;8.478;2022-11-15T09:17:26;5.23;;;4.77;;
8526;SDS011;4301;48.362;8.478;2022-11-15T09:19:53;6.43;;;5.30;;
8526;SDS011;4301;48.362;8.478;2022-11-15T09:22:20;6.40;;;5.70;;
8526;SDS011;4301;48.362;8.478;2022-11-15T09:24:48;6.63;;;5.00;;
8526;SDS011;4301;48.362;8.478;2022-11-15T09:27:16;4.93;;;4.53;;
8526;SDS011;4301;48.362;8.478;2022-11-15T09:29:43;6.43;;;5.73;;
8526;SDS011;4301;48.362;8.478;2022-11-15T09:32:10;6.87;;;5.30;;
8526;SDS011;4301;48.362;8.478;2022-11-15T09:34:37;6.20;;;5.10;;
8526;SDS011;4301;48.362;8.478;2022-11-15T09:37:04;6.33;;;5.33;;
8526;SDS011;4301;48.362;8.478;2022-11-15T09:39:31;5.40;;;4.90;;
8526;SDS011;4301;48.362;8.478;2022-11-15T09:42:06;5.93;;;5.27;;
8526;SDS011;4301;48.362;8.478;2022-11-15T09:44:51;7.03;;;5.50;;
8526;SDS011;4301;48.362;8.478;2022-11-15T09:50:36;7.10;;;6.20;;
8526;SDS011;4301;48.362;8.478;2022-11-15T09:53:08;6.30;;;4.87;;
8526;SDS011;4301;48.362;8.478;2022-11-15T09:55:40;6.17;;;5.30;;
8526;SDS011;4301;48.362;8.478;2022-11-15T09:58:18;8.10;;;5.50;;
8526;SDS011;4301;48.362;8.478;2022-11-15T10:00:54;5.93;;;5.33;;
8526;SDS011;4301;48.362;8.478;2022-11-15T10:03:25;6.30;;;5.20;;
8526;SDS011;4301;48.362;8.478;2022-11-15T10:06:02;8.13;;;7.10;;
8526;SDS011;4301;48.362;8.478;2022-11-15T10:08:37;9.27;;;8.47;;
8526;SDS011;4301;48.362;8.478;2022-11-15T10:11:15;7.47;;;6.57;;
8526;SDS011;4301;48.362;8.478;2022-11-15T10:13:48;6.40;;;5.80;;
8526;SDS011;4301;48.362;8.478;2022-11-15T10:16:21;7.83;;;6.37;;
8526;SDS011;4301;48.362;8.478;2022-11-15T10:19:12;8.77;;;7.97;;
8526;SDS011;4301;48.362;8.478;2022-11-15T10:21:48;9.73;;;8.00;;
8526;SDS011;4301;48.362;8.478;2022-11-15T10:24:25;8.50;;;7.33;;
8526;SDS011;4301;48.362;8.478;2022-11-15T10:26:54;11.10;;;7.83;;
8526;SDS011;4301;48.362;8.478;2022-11-15T10:29:24;10.43;;;8.67;;
8526;SDS011;4301;48.362;8.478;2022-11-15T10:31:51;8.73;;;6.57;;
8526;SDS011;4301;48.362;8.478;2022-11-15T10:34:20;8.80;;;7.23;;
8526;SDS011;4301;48.362;8.478;2022-11-15T10:36:53;6.00;;;5.40;;
8526;SDS011;4301;48.362;8.478;2022-11-15T10:39:22;6.17;;;5.53;;
8526;SDS011;4301;48.362;8.478;2022-11-15T10:41:50;6.87;;;5.30;;
8526;SDS011;4301;48.362;8.478;2022-11-15T10:44:26;5.60;;;5.00;;
8526;SDS011;4301;48.362;8.478;2022-11-15T10:49:56;7.10;;;6.40;;
8526;SDS011;4301;48.362;8.478;2022-11-15T10:52:28;9.93;;;6.80;;
8526;SDS011;4301;48.362;8.478;2022-11-15T10:54:59;6.27;;;5.60;;
8526;SDS011;4301;48.362;8.478;2022-11-15T10:57:30;8.33;;;6.70;;
8526;SDS011;4301;48.362;8.478;2022-11-15T11:00:04;11.23;;;10.13;;
8526;SDS011;4301;48.362;8.478;2022-11-15T11:02:34;10.30;;;8.03;;
8526;SDS011;4301;48.362;8.478;2022-11-15T11:05:04;6.70;;;5.50;;
8526;SDS011;4301;48.362;8.478;2022-11-15T11:07:33;8.80;;;6.87;;
8526;SDS011;4301;48.362;8.478;2022-11-15T11:10:03;7.77;;;7.07;;
8526;SDS011;4301;48.362;8.478;2022-11-15T11:12:43;8.70;;;7.90;;
8526;SDS011;4301;48.362;8.478;2022-11-15T11:15:12;7.30;;;6.60;;
8526;SDS011;4301;48.362;8.478;2022-11-15T11:17:48;8.87;;;6.63;;
8526;SDS011;4301;48.362;8.478;2022-11-15T11:20:21;8.77;;;5.93;;
8526;SDS011;4301;48.362;8.478;2022-11-15T11:25:47;7.00;;;6.33;;
8526;SDS011;4301;48.362;8.478;2022-11-15T11:28:25;10.10;;;6.80;;
8526;SDS011;4301;48.362;8.478;2022-11-15T11:31:11;7.27;;;6.57;;
8526;SDS011;4301;48.362;8.478;2022-11-15T11:33:48;7.00;;;6.30;;
8526;SDS011;4301;48.362;8.478;2022-11-15T11:36:24;9.70;;;7.07;;
8526;SDS011;4301;48.362;8.478;2022-11-15T11:39:02;6.97;;;6.27;;
8526;SDS011;4301;48.362;8.478;2022-11-15T11:41:53;6.70;;;5.93;;
8526;SDS011;4301;48.362;8.478;2022-11-15T11:44:33;6.23;;;5.63;;
8526;SDS011;4301;48.362;8.478;2022-11-15T11:47:11;10.33;;;7.03;;
8526;SDS011;4301;48.362;8.478;2022-11-15T11:49:43;9.93;;;6.70;;
8526;SDS011;4301;48.362;8.478;2022-11-15T11:52:15;7.10;;;5.97;;
8526;SDS011;4301;48.362;8.478;2022-11-15T11:54:49;6.37;;;5.63;;
8526;SDS011;4301;48.362;8.478;2022-11-15T11:57:23;5.83;;;5.13;;
8526;SDS011;4301;48.362;8.478;2022-11-15T11:59:59;8.67;;;6.07;;
8526;SDS011;4301;48.362;8.478;2022-11-15T12:02:34;7.30;;;6.17;;
8526;SDS011;4301;48.362;8.478;2022-11-15T12:05:09;7.47;;;5.63;;
8526;SDS011;4301;48.362;8.478;2022-11-15T12:07:38;6.20;;;5.30;;
8526;SDS011;4301;48.362;8.478;2022-11-15T12:10:12;7.20;;;5.50;;
8526;SDS011;4301;48.362;8.478;2022-11-15T12:12:49;6.00;;;5.40;;
8526;SDS011;4301;48.362;8.478;2022-11-15T12:15:22;6.77;;;5.87;;
8526;SDS011;4301;48.362;8.478;2022-11-15T12:17:54;5.27;;;4.53;;
8526;SDS011;4301;48.362;8.478;2022-11-15T12:20:24;5.60;;;3.70;;
8526;SDS011;4301;48.362;8.478;2022-11-15T12:22:54;3.53;;;3.23;;
8526;SDS011;4301;48.362;8.478;2022-11-15T12:25:25;3.20;;;2.90;;
8526;SDS011;4301;48.362;8.478;2022-11-15T12:27:57;1.50;;;1.40;;
8526;SDS011;4301;48.362;8.478;2022-11-15T12:30:38;2.17;;;1.70;;
8526;SDS011;4301;48.362;8.478;2022-11-15T12:36:03;1.60;;;1.43;;
8526;SDS011;4301;48.362;8.478;2022-11-15T12:38:50;1.80;;;1.70;;
8526;SDS011;4301;48.362;8.478;2022-11-15T12:41:21;1.53;;;1.43;;
8526;SDS011;4301;48.362;8.478;2022-11-15T12:43:50;2.67;;;1.43;;
8526;SDS011;4301;48.362;8.478;2022-11-15T12:46:22;2.00;;;1.90;;
8526;SDS011;4301;48.362;8.478;2022-11-15T12:52:21;5.20;;;2.83;;
8526;SDS011;4301;48.362;8.478;2022-11-15T12:54:50;3.80;;;2.70;;
8526;SDS011;4301;48.362;8.478;2022-11-15T12:57:31;2.67;;;2.33;;
8526;SDS011;4301;48.362;8.478;2022-11-15T13:00:02;2.10;;;1.73;;
8526;SDS011;4301;48.362;8.478;2022-11-15T13:02:48;2.33;;;2.13;;
8526;SDS011;4301;48.362;8.478;2022-11-15T13:08:40;5.53;;;2.70;;
8526;SDS011;4301;48.362;8.478;2022-11-15T13:22:47;3.57;;;3.27;;
8526;SDS011;4301;48.362;8.478;2022-11-15T13:25:26;7.17;;;6.47;;
8526;SDS011;4301;48.362;8.478;2022-11-15T13:28:09;4.60;;;4.20;;
8526;SDS011;4301;48.362;8.478;2022-11-15T13:30:48;4.93;;;4.40;;
8526;SDS011;4301;48.362;8.478;2022-11-15T13:33:19;4.50;;;4.10;;
8526;SDS011;4301;48.362;8.478;2022-11-15T13:35:49;4.13;;;3.83;;
8526;SDS011;4301;48.362;8.478;2022-11-15T13:38:22;5.50;;;4.00;;
8526;SDS011;4301;48.362;8.478;2022-11-15T13:40:54;5.30;;;4.40;;
8526;SDS011;4301;48.362;8.478;2022-11-15T13:43:26;5.83;;;5.23;;
8526;SDS011;4301;48.362;8.478;2022-11-15T13:46:06;4.93;;;4.53;;
8526;SDS011;4301;48.362;8.478;2022-11-15T13:48:38;6.40;;;4.20;;
8526;SDS011;4301;48.362;8.478;2022-11-15T13:51:08;4.43;;;4.03;;
8526;SDS011;4301;48.362;8.478;2022-11-15T13:53:43;5.17;;;4.43;;
8526;SDS011;4301;48.362;8.478;2022-11-15T13:56:17;5.93;;;4.13;;
8526;SDS011;4301;48.362;8.478;2022-11-15T13:58:46;4.87;;;4.43;;
8526;SDS011;4301;48.362;8.478;2022-11-15T14:01:14;4.70;;;4.20;;
8526;SDS011;4301;48.362;8.478;2022-11-15T14:03:49;5.60;;;5.10;;
8526;SDS011;4301;48.362;8.478;2022-11-15T14:06:21;4.57;;;4.17;;
8526;SDS011;4301;48.362;8.478;2022-11-15T14:09:01;4.93;;;4.43;;
8526;SDS011;4301;48.362;8.478;2022-11-15T14:11:56;5.07;;;4.57;;
8526;SDS011;4301;48.362;8.478;2022-11-15T14:14:24;6.63;;;5.43;;
8526;SDS011;4301;48.362;8.478;2022-11-15T14:16:53;9.40;;;7.97;;
8526;SDS011;4301;48.362;8.478;2022-11-15T14:22:07;8.03;;;6.37;;
8526;SDS011;4301;48.362;8.478;2022-11-15T14:24:43;7.27;;;6.27;;
8526;SDS011;4301;48.362;8.478;2022-11-15T14:27:18;5.97;;;5.47;;
8526;SDS011;4301;48.362;8.478;2022-11-15T14:29:48;10.57;;;6.50;;
8526;SDS011;4301;48.362;8.478;2022-11-15T14:32:17;6.37;;;5.77;;
8526;SDS011;4301;48.362;8.478;2022-11-15T14:34:46;6.60;;;6.00;;
8526;SDS011;4301;48.362;8.478;2022-11-15T14:37:21;7.27;;;6.37;;
8526;SDS011;4301;48.362;8.478;2022-11-15T14:39:50;6.77;;;6.07;;
8526;SDS011;4301;48.362;8.478;2022-11-15T14:42:20;7.73;;;6.03;;
8526;SDS011;4301;48.362;8.478;2022-11-15T14:44:48;6.43;;;5.70;;
8526;SDS011;4301;48.362;8.478;2022-11-15T14:47:15;7.77;;;4.97;;
8526;SDS011;4301;48.362;8.478;2022-11-15T14:49:43;4.93;;;4.47;;
8526;SDS011;4301;48.362;8.478;2022-11-15T14:52:16;4.90;;;4.50;;
8526;SDS011;4301;48.362;8.478;2022-11-15T14:54:52;5.20;;;4.63;;
8526;SDS011;4301;48.362;8.478;2022-11-15T14:57:26;5.13;;;4.60;;
8526;SDS011;4301;48.362;8.478;2022-11-15T14:59:53;5.07;;;4.60;;
8526;SDS011;4301;48.362;8.478;2022-11-15T15:02:23;4.90;;;4.50;;
8526;SDS011;4301;48.362;8.478;2022-11-15T15:04:52;5.00;;;4.60;;
8526;SDS011;4301;48.362;8.478;2022-11-15T15:07:20;4.97;;;4.57;;
8526;SDS011;4301;48.362;8.478;2022-11-15T15:09:48;5.77;;;4.53;;
8526;SDS011;4301;48.362;8.478;2022-11-15T15:12:16;4.00;;;3.70;;
8526;SDS011;4301;48.362;8.478;2022-11-15T15:14:47;3.50;;;3.20;;
8526;SDS011;4301;48.362;8.478;2022-11-15T15:17:15;4.23;;;3.73;;
8526;SDS011;4301;48.362;8.478;2022-11-15T15:19:43;5.63;;;4.07;;
8526;SDS011;4301;48.362;8.478;2022-11-15T15:22:11;4.87;;;4.40;;
8526;SDS011;4301;48.362;8.478;2022-11-15T15:24:41;7.20;;;4.23;;
8526;SDS011;4301;48.362;8.478;2022-11-15T15:27:08;5.40;;;4.50;;
8526;SDS011;4301;48.362;8.478;2022-11-15T15:29:35;5.00;;;4.50;;
8526;SDS011;4301;48.362;8.478;2022-11-15T15:32:05;6.20;;;4.50;;
8526;SDS011;4301;48.362;8.478;2022-11-15T15:34:33;6.30;;;4.57;;
8526;SDS011;4301;48.362;8.478;2022-11-15T15:37:07;4.93;;;4.53;;
8526;SDS011;4301;48.362;8.478;2022-11-15T15:39:35;5.63;;;5.10;;
8526;SDS011;4301;48.362;8.478;2022-11-15T15:42:02;7.10;;;5.00;;
8526;SDS011;4301;48.362;8.478;2022-11-15T15:44:30;6.20;;;4.90;;
8526;SDS011;4301;48.362;8.478;2022-11-15T15:46:57;5.70;;;5.00;;
8526;SDS011;4301;48.362;8.478;2022-11-15T15:49:25;5.80;;;5.00;;
8526;SDS011;4301;48.362;8.478;2022-11-15T15:51:53;5.47;;;4.80;;
8526;SDS011;4301;48.362;8.478;2022-11-15T15:54:20;6.10;;;5.57;;
8526;SDS011;4301;48.362;8.478;2022-11-15T15:56:48;5.40;;;4.77;;
8526;SDS011;4301;48.362;8.478;2022-11-15T15:59:15;5.47;;;4.83;;
8526;SDS011;4301;48.362;8.478;2022-11-15T16:01:42;6.50;;;5.43;;
8526;SDS011;4301;48.362;8.478;2022-11-15T16:04:09;6.27;;;5.23;;
8526;SDS011;4301;48.362;8.478;2022-11-15T16:06:37;6.00;;;5.13;;
8526;SDS011;4301;48.362;8.478;2022-11-15T16:09:10;6.73;;;5.27;;
8526;SDS011;4301;48.362;8.478;2022-11-15T16:11:40;7.20;;;6.40;;